Time;durP1;ratioP1;P1;durP2;ratioP2;P2;SDS_P1;SDS_P2;PMS_P1;PMS_P2;Temp;Humidity;BMP_temperature;BMP_pressure;BME280_temperature;BME280_humidity;BME280_pressure;Samples;Min_cycle;Max_cycle;Signal;HPM_P1;HPM_P2
2022/05/07 00:00:54;;;;;;;9.25;5.18;;;17.00;99.90;;;;;;5039563;28;20075;-76
2022/05/07 00:03:22;;;;;;;7.22;4.95;;;17.00;99.90;;;;;;5043897;28;20796;-76
2022/05/07 00:05:50;;;;;;;7.63;5.18;;;17.10;99.90;;;;;;5070088;28;20410;-75
2022/05/07 00:08:17;;;;;;;8.85;4.93;;;17.10;99.90;;;;;;5088544;28;20078;-76
2022/05/07 00:10:45;;;;;;;6.57;5.18;;;17.10;99.90;;;;;;5074010;28;20454;-76
2022/05/07 00:13:13;;;;;;;8.32;4.90;;;17.00;99.90;;;;;;5073749;28;20056;-76
2022/05/07 00:18:01;;;;;;;6.82;5.55;;;17.00;99.90;;;;;;5070431;28;20410;-76
2022/05/07 00:18:30;;;;;;;10.20;5.10;;;17.10;99.90;;;;;;5075544;28;20512;-76
2022/05/07 00:20:57;;;;;;;8.30;5.25;;;17.10;99.90;;;;;;5089891;28;20052;-76
2022/05/07 00:23:25;;;;;;;15.13;6.00;;;17.10;99.90;;;;;;5074600;28;20062;-76
2022/05/07 00:25:52;;;;;;;9.90;5.20;;;17.10;99.90;;;;;;5079859;28;20139;-76
2022/05/07 00:28:20;;;;;;;7.63;5.10;;;17.10;99.90;;;;;;5053472;28;20486;-76
2022/05/07 00:30:47;;;;;;;9.88;5.43;;;17.10;99.90;;;;;;5044023;28;20143;-76
2022/05/07 00:33:15;;;;;;;8.38;4.97;;;17.10;99.90;;;;;;5026808;28;20083;-76
2022/05/07 00:35:43;;;;;;;6.97;4.25;;;17.10;99.90;;;;;;5037657;28;20040;-76
2022/05/07 00:38:11;;;;;;;8.88;5.50;;;17.10;99.90;;;;;;5055321;28;20135;-76
2022/05/07 00:40:39;;;;;;;10.90;5.28;;;17.10;99.90;;;;;;5072369;28;20444;-76
2022/05/07 00:43:06;;;;;;;8.20;4.28;;;17.20;99.90;;;;;;5054568;28;20076;-76
2022/05/07 00:45:34;;;;;;;7.57;5.05;;;17.10;99.90;;;;;;5054496;28;20651;-76
2022/05/07 00:48:02;;;;;;;9.43;5.47;;;17.10;99.90;;;;;;5048642;28;20067;-77
2022/05/07 00:53:16;;;;;;;7.40;4.30;;;17.10;99.90;;;;;;5069223;28;20048;-76
2022/05/07 00:55:44;;;;;;;8.90;5.80;;;17.00;99.90;;;;;;5055154;28;20044;-76
2022/05/07 00:58:12;;;;;;;8.43;5.07;;;17.00;99.90;;;;;;5072716;28;20058;-77
2022/05/07 01:00:40;;;;;;;7.25;4.60;;;16.90;99.90;;;;;;5056015;28;20047;-76
2022/05/07 01:03:07;;;;;;;12.88;5.43;;;16.90;99.90;;;;;;5061202;28;20057;-76
2022/05/07 01:05:35;;;;;;;8.23;4.82;;;16.90;99.90;;;;;;5053329;28;20052;-76
2022/05/07 01:08:03;;;;;;;6.13;4.57;;;16.90;99.90;;;;;;5052741;28;20478;-76
2022/05/07 01:10:33;;;;;;;10.43;5.25;;;16.90;99.90;;;;;;5053019;28;20044;-76
2022/05/07 01:13:01;;;;;;;8.50;4.78;;;16.90;99.90;;;;;;5052647;28;20516;-76
2022/05/07 01:15:28;;;;;;;10.35;5.43;;;16.90;99.90;;;;;;5035087;28;20546;-76
2022/05/07 01:17:56;;;;;;;11.57;5.03;;;17.00;99.90;;;;;;5035851;28;20059;-76
2022/05/07 01:20:24;;;;;;;8.07;5.25;;;17.00;99.90;;;;;;5052850;28;20082;-76
2022/05/07 01:22:51;;;;;;;7.25;5.40;;;17.00;99.90;;;;;;5035878;28;20068;-76
2022/05/07 01:25:26;;;;;;;9.38;5.35;;;17.00;99.90;;;;;;5034939;28;20080;-76
2022/05/07 01:27:53;;;;;;;6.95;4.97;;;16.90;99.90;;;;;;5036478;28;20103;-76
2022/05/07 01:30:23;;;;;;;9.85;5.53;;;16.90;99.90;;;;;;5052480;28;20044;-76
2022/05/07 01:32:51;;;;;;;8.80;4.47;;;16.90;99.90;;;;;;5036082;28;20032;-76
2022/05/07 01:35:19;;;;;;;13.68;5.68;;;16.80;99.90;;;;;;5030860;28;20049;-77
2022/05/07 01:37:49;;;;;;;13.93;5.75;;;16.60;99.90;;;;;;5013098;28;20052;-76
2022/05/07 01:40:17;;;;;;;9.25;5.10;;;16.60;99.90;;;;;;5031621;28;20071;-76
2022/05/07 01:42:47;;;;;;;11.00;6.07;;;16.60;99.90;;;;;;5020458;28;20049;-76
2022/05/07 01:45:15;;;;;;;7.82;4.95;;;16.60;99.90;;;;;;5019707;28;20057;-76
2022/05/07 01:50:49;;;;;;;8.50;5.18;;;16.70;99.90;;;;;;4996958;28;20088;-76
2022/05/07 01:53:22;;;;;;;7.85;4.80;;;16.80;99.90;;;;;;5019943;28;20052;-76
2022/05/07 01:55:53;;;;;;;10.75;5.22;;;16.80;99.90;;;;;;4999914;28;20565;-76
2022/05/07 01:58:26;;;;;;;8.77;5.05;;;16.90;99.90;;;;;;5033136;28;20392;-76
2022/05/07 02:00:57;;;;;;;7.75;3.95;;;16.90;99.90;;;;;;5020135;28;20493;-76
2022/05/07 02:03:25;;;;;;;8.23;5.22;;;16.90;99.90;;;;;;5046194;28;20064;-76
2022/05/07 02:05:53;;;;;;;7.65;4.93;;;16.80;99.90;;;;;;5073261;28;20048;-76
2022/05/07 02:08:21;;;;;;;8.30;5.47;;;16.80;99.90;;;;;;5039564;28;20109;-76
2022/05/07 02:10:49;;;;;;;10.57;5.32;;;16.80;99.90;;;;;;5022523;28;20053;-76
2022/05/07 02:13:17;;;;;;;7.28;4.88;;;16.80;99.90;;;;;;5047434;28;20521;-76
2022/05/07 02:15:44;;;;;;;6.28;4.88;;;16.80;99.90;;;;;;5058579;28;20052;-76
2022/05/07 02:18:13;;;;;;;11.32;6.18;;;16.80;99.90;;;;;;5059197;28;20052;-76
2022/05/07 02:20:40;;;;;;;8.27;5.18;;;16.80;99.90;;;;;;5058952;28;20048;-76
2022/05/07 02:23:08;;;;;;;7.45;4.28;;;16.70;99.90;;;;;;5093646;28;20498;-76
2022/05/07 02:25:36;;;;;;;7.80;4.80;;;16.70;99.90;;;;;;5059003;28;20059;-76
2022/05/07 02:28:05;;;;;;;11.02;6.45;;;16.60;99.90;;;;;;5075878;28;20067;-76
2022/05/07 02:30:33;;;;;;;9.65;5.68;;;16.60;99.90;;;;;;5058534;28;20047;-76
2022/05/07 02:33:04;;;;;;;9.32;5.85;;;16.60;99.90;;;;;;5058934;28;20044;-76
2022/05/07 02:35:35;;;;;;;8.20;4.50;;;16.50;99.90;;;;;;5057869;28;20036;-76
2022/05/07 02:38:02;;;;;;;9.43;5.38;;;16.50;99.90;;;;;;5075008;28;20044;-76
2022/05/07 02:42:33;;;;;;;10.20;4.90;;;16.50;99.90;;;;;;5054232;28;20106;-76
2022/05/07 02:43:24;;;;;;;10.60;4.68;;;16.50;99.90;;;;;;5055118;28;20041;-76
2022/05/07 02:45:53;;;;;;;9.63;5.30;;;16.40;99.90;;;;;;5038603;28;20047;-76
2022/05/07 02:48:22;;;;;;;7.07;4.45;;;16.40;99.90;;;;;;5072875;28;20040;-76
2022/05/07 02:50:50;;;;;;;8.82;5.28;;;16.40;99.90;;;;;;5054844;28;20083;-76
2022/05/07 02:53:18;;;;;;;7.70;5.43;;;16.40;99.90;;;;;;5038796;28;20056;-76
2022/05/07 02:55:45;;;;;;;6.78;4.60;;;16.40;99.90;;;;;;5054884;28;20051;-76
2022/05/07 02:58:13;;;;;;;10.15;4.93;;;16.40;99.90;;;;;;5054860;28;20467;-77
2022/05/07 03:00:42;;;;;;;8.85;5.28;;;16.40;99.90;;;;;;5024706;28;20056;-76
2022/05/07 03:03:10;;;;;;;10.48;6.30;;;16.40;99.90;;;;;;5083258;28;20056;-77
2022/05/07 03:05:38;;;;;;;10.32;5.72;;;16.40;99.90;;;;;;5058454;28;20048;-76
2022/05/07 03:08:06;;;;;;;8.38;4.68;;;16.40;99.90;;;;;;5058089;28;20047;-76
2022/05/07 03:10:36;;;;;;;9.45;5.85;;;16.40;99.90;;;;;;5057619;28;20047;-76
2022/05/07 03:13:05;;;;;;;8.98;5.72;;;16.40;99.90;;;;;;5056727;28;20055;-76
2022/05/07 03:15:33;;;;;;;10.90;5.78;;;16.40;99.90;;;;;;5057613;28;20040;-76
2022/05/07 03:18:08;;;;;;;6.73;5.10;;;16.30;99.90;;;;;;5059574;28;20097;-76
2022/05/07 03:20:37;;;;;;;12.10;7.97;;;16.30;99.90;;;;;;5074385;28;20412;-76
2022/05/07 03:23:04;;;;;;;12.82;6.85;;;16.40;99.90;;;;;;5074209;28;20127;-77
2022/05/07 03:25:32;;;;;;;9.60;6.20;;;16.30;99.90;;;;;;5074329;28;20055;-77
2022/05/07 03:28:04;;;;;;;11.82;6.00;;;16.30;99.90;;;;;;5057870;28;20052;-76
2022/05/07 03:30:32;;;;;;;12.57;5.72;;;16.30;99.90;;;;;;5057436;28;20497;-76
2022/05/07 03:33:03;;;;;;;9.48;5.93;;;16.30;99.90;;;;;;5057253;28;20055;-76
2022/05/07 03:35:30;;;;;;;8.05;5.32;;;16.30;99.90;;;;;;5053620;28;20498;-77
2022/05/07 03:37:59;;;;;;;7.20;4.80;;;16.30;99.90;;;;;;5053910;28;20052;-76
2022/05/07 03:40:32;;;;;;;10.55;5.93;;;16.20;99.90;;;;;;5037617;28;20044;-76
2022/05/07 03:42:59;;;;;;;8.20;5.95;;;16.20;99.90;;;;;;5017938;28;20251;-76
2022/05/07 03:45:29;;;;;;;8.68;5.78;;;16.20;99.90;;;;;;5031760;28;20503;-76
2022/05/07 03:47:58;;;;;;;11.57;5.65;;;16.20;99.90;;;;;;5021133;28;20044;-76
2022/05/07 03:50:26;;;;;;;10.30;6.50;;;16.20;99.90;;;;;;5037556;28;20084;-76
2022/05/07 03:55:41;;;;;;;7.30;5.47;;;16.10;99.90;;;;;;5071601;28;20047;-76
2022/05/07 03:58:15;;;;;;;10.43;5.82;;;16.10;99.90;;;;;;5053633;28;20275;-77
2022/05/07 04:00:45;;;;;;;7.13;5.45;;;16.10;99.90;;;;;;5036175;28;20109;-76
2022/05/07 04:03:13;;;;;;;7.90;5.20;;;16.10;99.90;;;;;;5053164;28;20705;-77
2022/05/07 04:05:50;;;;;;;8.60;5.82;;;16.10;99.90;;;;;;5038051;28;20518;-76
2022/05/07 04:08:19;;;;;;;10.73;4.97;;;16.10;99.90;;;;;;5053658;28;20052;-76
2022/05/07 04:10:49;;;;;;;10.85;6.47;;;16.10;99.90;;;;;;5053337;28;20499;-76
2022/05/07 04:13:21;;;;;;;10.25;5.78;;;16.10;99.90;;;;;;5037180;28;20035;-76
2022/05/07 04:15:54;;;;;;;10.15;5.57;;;16.10;99.90;;;;;;5037896;28;20124;-76
2022/05/07 04:18:24;;;;;;;10.40;6.03;;;16.10;99.90;;;;;;5020803;28;20062;-77
2022/05/07 04:20:55;;;;;;;10.50;5.55;;;16.20;99.90;;;;;;5047983;28;20109;-76
2022/05/07 04:23:24;;;;;;;8.48;6.18;;;16.20;99.90;;;;;;5052873;28;20044;-76
2022/05/07 04:25:54;;;;;;;9.88;5.43;;;16.30;99.90;;;;;;5053033;28;20533;-76
2022/05/07 04:28:24;;;;;;;10.68;6.25;;;16.40;99.90;;;;;;5036408;28;20052;-76
2022/05/07 04:30:53;;;;;;;10.88;6.13;;;16.50;99.90;;;;;;5053417;28;20136;-76
2022/05/07 04:33:26;;;;;;;9.10;6.22;;;16.60;99.90;;;;;;5036205;28;20040;-77
2022/05/07 04:36:00;;;;;;;8.65;6.05;;;16.60;99.90;;;;;;5052750;28;20057;-77
2022/05/07 04:38:29;;;;;;;18.13;5.75;;;16.60;99.90;;;;;;5053046;28;20048;-77
2022/05/07 04:40:58;;;;;;;10.93;6.10;;;16.60;99.90;;;;;;5036511;28;20102;-76
2022/05/07 04:43:29;;;;;;;10.35;6.13;;;16.70;99.90;;;;;;5052013;28;20433;-76
2022/05/07 04:45:57;;;;;;;8.38;4.80;;;16.70;99.90;;;;;;5069194;28;20048;-77
2022/05/07 04:48:26;;;;;;;7.85;5.15;;;16.80;99.90;;;;;;5035184;28;20375;-76
2022/05/07 04:50:55;;;;;;;7.18;4.97;;;16.90;99.90;;;;;;5052057;28;20106;-76
2022/05/07 04:53:32;;;;;;;12.32;5.40;;;17.00;99.90;;;;;;5069538;28;20040;-76
2022/05/07 04:56:07;;;;;;;6.22;4.80;;;17.10;99.90;;;;;;5052900;28;20071;-76
2022/05/07 04:58:40;;;;;;;9.57;5.32;;;17.20;99.90;;;;;;5052866;28;20503;-76
2022/05/07 05:01:08;;;;;;;7.47;5.10;;;17.20;99.90;;;;;;5036121;28;20117;-76
2022/05/07 05:03:43;;;;;;;7.57;4.90;;;17.30;99.90;;;;;;5069968;28;20060;-77
2022/05/07 05:06:18;;;;;;;10.57;5.45;;;17.40;99.90;;;;;;5051809;28;20075;-77
2022/05/07 05:08:57;;;;;;;8.85;6.25;;;17.40;99.90;;;;;;5069563;28;20079;-77
2022/05/07 05:11:25;;;;;;;10.52;5.03;;;17.40;99.90;;;;;;5068640;28;20055;-77
2022/05/07 05:13:54;;;;;;;9.23;5.72;;;17.40;99.90;;;;;;5071889;28;20052;-76
2022/05/07 05:16:24;;;;;;;11.43;5.20;;;17.30;99.90;;;;;;5039827;28;20048;-76
2022/05/07 05:19:03;;;;;;;7.10;4.88;;;17.20;99.90;;;;;;5059799;28;20052;-76
2022/05/07 05:21:31;;;;;;;8.10;4.60;;;17.20;99.90;;;;;;5059501;28;20052;-76
2022/05/07 05:24:06;;;;;;;7.88;4.75;;;17.30;99.90;;;;;;5076718;28;20596;-76
2022/05/07 05:26:36;;;;;;;7.88;5.10;;;17.30;99.90;;;;;;5059867;28;20055;-77
2022/05/07 05:29:08;;;;;;;9.18;5.10;;;17.30;99.90;;;;;;5060432;28;20123;-76
2022/05/07 05:31:36;;;;;;;6.38;4.65;;;17.40;99.90;;;;;;5076560;28;20526;-76
2022/05/07 05:34:13;;;;;;;6.75;4.43;;;17.40;99.90;;;;;;5076797;28;20401;-76
2022/05/07 05:36:47;;;;;;;8.98;5.10;;;17.30;99.90;;;;;;5076057;28;20048;-77
2022/05/07 05:39:16;;;;;;;6.50;4.88;;;17.40;99.90;;;;;;5059856;28;20079;-76
2022/05/07 05:41:46;;;;;;;8.95;5.05;;;17.50;99.90;;;;;;5043612;28;20078;-76
2022/05/07 05:44:15;;;;;;;6.38;4.25;;;17.50;99.90;;;;;;5059507;28;20059;-76
2022/05/07 05:46:42;;;;;;;6.90;4.55;;;17.50;99.90;;;;;;5076113;28;20040;-76
2022/05/07 05:49:11;;;;;;;8.88;4.85;;;17.50;99.90;;;;;;5076062;28;20044;-76
2022/05/07 05:51:42;;;;;;;7.78;5.20;;;17.50;99.90;;;;;;5043147;28;20044;-77
2022/05/07 05:54:11;;;;;;;9.82;5.13;;;17.60;99.90;;;;;;5075903;28;20067;-77
2022/05/07 05:56:39;;;;;;;6.95;4.82;;;17.60;99.90;;;;;;5075984;28;20110;-77
2022/05/07 05:59:08;;;;;;;8.68;4.50;;;17.70;99.90;;;;;;5075999;28;20565;-76
2022/05/07 06:01:54;;;;;;;6.57;4.40;;;17.80;99.90;;;;;;5075568;28;20440;-76
2022/05/07 06:04:28;;;;;;;9.57;5.03;;;17.90;99.90;;;;;;5060360;28;20058;-76
2022/05/07 06:07:04;;;;;;;9.10;4.82;;;18.00;99.90;;;;;;5059566;28;20048;-75
2022/05/07 06:09:34;;;;;;;6.97;5.18;;;18.20;99.90;;;;;;5075503;28;20036;-75
2022/05/07 06:12:04;;;;;;;8.00;5.28;;;18.20;99.90;;;;;;5059260;28;20393;-76
2022/05/07 06:14:33;;;;;;;11.50;4.63;;;18.30;99.90;;;;;;5073539;28;20140;-77
2022/05/07 06:17:04;;;;;;;7.80;5.25;;;18.30;99.90;;;;;;5038694;28;20070;-77
2022/05/07 06:19:32;;;;;;;7.03;4.85;;;18.30;99.90;;;;;;5073327;28;20044;-77
2022/05/07 06:22:00;;;;;;;8.05;4.35;;;18.20;99.90;;;;;;5035307;28;20140;-76
2022/05/07 06:27:28;;;;;;;6.30;4.20;;;18.20;99.90;;;;;;5054336;28;20052;-76
2022/05/07 06:30:02;;;;;;;8.38;5.05;;;18.10;99.90;;;;;;5055217;28;20047;-76
2022/05/07 06:32:33;;;;;;;7.60;4.97;;;18.10;99.90;;;;;;5039448;28;20051;-76
2022/05/07 06:35:06;;;;;;;6.22;4.53;;;18.10;99.90;;;;;;5055153;28;20068;-76
2022/05/07 06:37:48;;;;;;;9.73;5.55;;;18.20;99.90;;;;;;5023511;28;20076;-76
2022/05/07 06:40:18;;;;;;;5.63;4.32;;;18.20;99.90;;;;;;5038308;28;20052;-76
2022/05/07 06:42:48;;;;;;;9.82;5.28;;;18.20;99.90;;;;;;5072955;28;20055;-77
2022/05/07 06:45:25;;;;;;;8.63;5.00;;;18.20;99.90;;;;;;5055856;28;20170;-76
2022/05/07 06:47:53;;;;;;;8.18;5.25;;;18.20;99.90;;;;;;5054925;28;20037;-76
2022/05/07 06:50:21;;;;;;;8.55;5.05;;;18.30;99.90;;;;;;5038524;28;20079;-77
2022/05/07 06:52:49;;;;;;;4.97;4.40;;;18.30;99.90;;;;;;5021902;28;20053;-77
2022/05/07 06:55:18;;;;;;;7.25;4.95;;;18.40;99.90;;;;;;5055056;28;20048;-77
2022/05/07 06:57:46;;;;;;;10.75;5.07;;;18.50;99.90;;;;;;5054619;28;20098;-77
2022/05/07 07:00:24;;;;;;;7.32;4.75;;;18.50;99.90;;;;;;5038466;28;20044;-77
2022/05/07 07:02:52;;;;;;;8.00;5.50;;;18.60;99.90;;;;;;5054421;28;20478;-77
2022/05/07 07:05:21;;;;;;;8.77;5.18;;;18.60;99.90;;;;;;5072014;28;20572;-76
2022/05/07 07:07:48;;;;;;;5.97;4.88;;;18.60;99.90;;;;;;5054680;28;20045;-77
2022/05/07 07:10:16;;;;;;;8.07;4.35;;;18.60;99.90;;;;;;5054417;28;20045;-77
2022/05/07 07:12:43;;;;;;;14.45;5.70;;;18.70;99.90;;;;;;5054065;28;20408;-77
2022/05/07 07:15:11;;;;;;;6.93;5.00;;;18.80;99.90;;;;;;5070474;28;20498;-77
2022/05/07 07:17:39;;;;;;;7.20;4.75;;;18.80;99.90;;;;;;5057529;28;20055;-77
2022/05/07 07:20:08;;;;;;;7.75;4.78;;;18.90;99.90;;;;;;5057081;28;20055;-76
2022/05/07 07:22:36;;;;;;;6.63;4.40;;;19.00;99.90;;;;;;5074479;28;20044;-77
2022/05/07 07:25:06;;;;;;;14.23;5.28;;;19.10;99.90;;;;;;5074163;28;20052;-77
2022/05/07 07:27:34;;;;;;;8.88;4.80;;;19.10;99.90;;;;;;5057553;28;20052;-76
2022/05/07 07:30:01;;;;;;;6.20;4.10;;;19.20;99.90;;;;;;5074114;28;20044;-76
2022/05/07 07:32:30;;;;;;;8.93;5.50;;;19.20;99.90;;;;;;5057551;28;20143;-74
2022/05/07 07:34:58;;;;;;;6.90;5.20;;;19.30;99.90;;;;;;5092094;28;20048;-71
2022/05/07 07:37:27;;;;;;;8.38;5.05;;;19.40;99.90;;;;;;5073433;28;20083;-72
2022/05/07 07:39:55;;;;;;;10.98;4.95;;;19.40;99.90;;;;;;5041328;28;20044;-73
2022/05/07 07:42:23;;;;;;;7.80;5.15;;;19.40;99.90;;;;;;5057390;28;20059;-73
2022/05/07 07:47:56;;;;;;;8.27;5.28;;;19.40;99.90;;;;;;5057675;28;20097;-73
2022/05/07 07:47:56;;;;;;;9.15;5.43;;;19.40;99.90;;;;;;5074392;28;20044;-73
2022/05/07 07:50:27;;;;;;;5.37;4.20;;;19.40;99.90;;;;;;5074106;28;20136;-73
2022/05/07 07:52:59;;;;;;;8.75;5.18;;;19.50;99.90;;;;;;5073725;28;20517;-74
2022/05/07 07:55:27;;;;;;;4.85;3.80;;;19.50;99.90;;;;;;5056477;28;20055;-73
2022/05/07 07:58:00;;;;;;;7.60;5.53;;;19.60;99.90;;;;;;5057143;28;20048;-72
2022/05/07 08:00:31;;;;;;;6.82;4.00;;;19.60;99.90;;;;;;5038328;28;20076;-72
2022/05/07 08:03:03;;;;;;;5.85;4.35;;;19.60;99.50;;;;;;5073122;28;20060;-73
2022/05/07 08:05:33;;;;;;;6.95;4.63;;;19.60;98.40;;;;;;5088847;28;20508;-73
2022/05/07 08:13:42;;;;;;;6.90;3.80;;;19.90;98.20;;;;;;5073293;28;20123;-72
2022/05/07 08:16:11;;;;;;;6.53;4.20;;;20.00;97.10;;;;;;5056796;28;20150;-73
2022/05/07 08:18:40;;;;;;;5.95;3.78;;;20.10;96.80;;;;;;5073579;28;20047;-73
2022/05/07 08:21:09;;;;;;;8.05;4.28;;;20.30;96.80;;;;;;5057371;28;20113;-72
2022/05/07 08:23:38;;;;;;;7.47;4.78;;;20.40;97.20;;;;;;5073461;28;20115;-73
2022/05/07 08:26:07;;;;;;;7.85;3.97;;;20.40;95.80;;;;;;5056410;28;20142;-73
2022/05/07 08:28:36;;;;;;;6.38;3.83;;;20.30;96.20;;;;;;5039720;28;20087;-74
2022/05/07 08:31:04;;;;;;;9.88;5.43;;;20.30;95.80;;;;;;5073660;28;20048;-73
2022/05/07 08:33:33;;;;;;;8.25;4.30;;;20.20;96.30;;;;;;5072870;28;20059;-74
2022/05/07 08:36:01;;;;;;;13.85;4.55;;;20.30;96.10;;;;;;5056519;28;20048;-73
2022/05/07 08:38:29;;;;;;;6.25;4.72;;;20.40;96.50;;;;;;5056862;28;20044;-73
2022/05/07 08:40:59;;;;;;;6.32;3.75;;;20.20;96.30;;;;;;5073504;28;20079;-70
2022/05/07 08:43:36;;;;;;;6.30;4.50;;;20.20;96.40;;;;;;5056599;28;20724;-70
2022/05/07 08:46:10;;;;;;;7.43;4.32;;;20.20;95.60;;;;;;5040308;28;20830;-72
2022/05/07 08:48:42;;;;;;;7.30;4.30;;;20.20;96.10;;;;;;5056405;28;20167;-71
2022/05/07 08:51:12;;;;;;;5.00;3.97;;;20.20;95.70;;;;;;5072809;28;20394;-76
2022/05/07 08:53:40;;;;;;;6.43;4.78;;;20.30;95.50;;;;;;5056658;28;20123;-69
2022/05/07 08:56:08;;;;;;;7.45;4.38;;;20.30;95.70;;;;;;5055582;28;20181;-72
2022/05/07 08:58:35;;;;;;;7.93;4.35;;;20.40;96.00;;;;;;5072852;28;20054;-72
2022/05/07 09:01:03;;;;;;;8.68;4.85;;;20.40;96.20;;;;;;5056412;28;20175;-72
2022/05/07 09:03:45;;;;;;;10.27;4.63;;;20.30;96.50;;;;;;5056566;28;20048;-73
2022/05/07 09:06:24;;;;;;;11.93;5.30;;;20.40;96.10;;;;;;5090902;28;20117;-73
2022/05/07 09:08:55;;;;;;;7.20;5.00;;;20.50;96.30;;;;;;5045002;28;20147;-73
2022/05/07 09:11:23;;;;;;;7.43;4.43;;;20.70;95.60;;;;;;5053024;28;20090;-72
2022/05/07 09:14:04;;;;;;;6.13;4.15;;;20.90;95.80;;;;;;5056471;28;20052;-74
2022/05/07 09:16:45;;;;;;;7.78;4.55;;;21.00;94.60;;;;;;5090963;28;20052;-72
2022/05/07 09:19:20;;;;;;;7.35;4.45;;;21.00;94.30;;;;;;5072339;28;20066;-73
2022/05/07 09:21:48;;;;;;;6.30;4.38;;;21.00;94.40;;;;;;5072632;28;20040;-72
2022/05/07 09:24:17;;;;;;;6.70;5.10;;;20.90;94.70;;;;;;5056228;28;20137;-73
2022/05/07 09:26:46;;;;;;;6.45;4.38;;;21.00;94.50;;;;;;5056153;28;20052;-73
2022/05/07 09:29:14;;;;;;;13.23;4.63;;;21.10;94.50;;;;;;5090544;28;20040;-72
2022/05/07 09:31:43;;;;;;;6.82;4.32;;;21.10;94.90;;;;;;5055497;28;20059;-75
2022/05/07 09:37:17;;;;;;;9.25;4.15;;;20.90;93.70;;;;;;5026179;28;20044;-72
2022/05/07 09:39:51;;;;;;;6.70;4.03;;;20.90;93.40;;;;;;5072570;28;20040;-73
2022/05/07 09:42:24;;;;;;;6.15;4.00;;;21.00;93.70;;;;;;5090574;28;20127;-75
2022/05/07 09:44:52;;;;;;;7.05;4.60;;;21.20;92.60;;;;;;5073103;28;20101;-72
2022/05/07 09:47:20;;;;;;;6.05;3.70;;;21.10;93.30;;;;;;5073687;28;20063;-71
2022/05/07 09:52:34;;;;;;;6.80;3.75;;;20.90;92.70;;;;;;5074815;28;20045;-71
2022/05/07 09:57:49;;;;;;;7.15;3.78;;;21.00;92.80;;;;;;5036548;28;20146;-72
2022/05/07 10:00:19;;;;;;;7.47;4.13;;;21.10;92.50;;;;;;5039004;28;20565;-70
2022/05/07 10:03:16;;;;;;;9.95;3.88;;;21.20;92.40;;;;;;5056068;28;20053;-72
2022/05/07 10:06:07;;;;;;;6.80;3.70;;;21.20;92.30;;;;;;5056263;28;20053;-70
2022/05/07 10:09:13;;;;;;;9.00;4.40;;;21.20;92.60;;;;;;5039250;28;20387;-70
2022/05/07 10:11:42;;;;;;;9.75;4.85;;;21.30;92.60;;;;;;5039754;28;20503;-71
2022/05/07 10:14:09;;;;;;;8.07;5.38;;;21.40;92.70;;;;;;5038317;28;20437;-70
2022/05/07 10:16:37;;;;;;;6.78;4.22;;;21.30;92.40;;;;;;5055067;28;20560;-72
2022/05/07 10:19:10;;;;;;;7.00;4.55;;;21.10;92.30;;;;;;5038753;28;20088;-75
2022/05/07 10:21:38;;;;;;;8.70;4.30;;;21.10;92.40;;;;;;5055262;28;20480;-74
2022/05/07 10:24:07;;;;;;;6.57;3.95;;;21.10;93.10;;;;;;5054953;28;20044;-74
2022/05/07 10:26:40;;;;;;;9.35;4.68;;;21.20;92.40;;;;;;5054987;28;20045;-74
2022/05/07 10:29:20;;;;;;;11.60;6.35;;;21.30;92.00;;;;;;5055054;28;20048;-75
2022/05/07 10:31:48;;;;;;;6.97;4.85;;;21.30;92.10;;;;;;5055049;28;20402;-75
2022/05/07 10:34:26;;;;;;;6.55;4.50;;;21.20;92.10;;;;;;5054389;28;20058;-73
2022/05/07 10:37:05;;;;;;;7.00;3.70;;;21.30;92.20;;;;;;5038269;28;20079;-73
2022/05/07 10:39:36;;;;;;;6.57;4.40;;;21.40;92.20;;;;;;5072625;28;20044;-73
2022/05/07 10:42:22;;;;;;;7.78;4.10;;;21.50;92.10;;;;;;5054607;28;20067;-75
2022/05/07 10:44:50;;;;;;;8.10;4.38;;;21.70;91.90;;;;;;5072261;28;20048;-74
2022/05/07 10:47:19;;;;;;;7.05;4.35;;;21.60;91.40;;;;;;5055855;28;20038;-71
2022/05/07 10:50:13;;;;;;;10.90;4.05;;;21.60;91.60;;;;;;5074452;28;20769;-71
2022/05/07 10:52:41;;;;;;;5.88;4.03;;;21.70;91.90;;;;;;5041549;28;20075;-71
2022/05/07 10:55:13;;;;;;;10.43;4.03;;;21.70;91.50;;;;;;5057453;28;20072;-78
2022/05/07 10:57:46;;;;;;;7.72;3.75;;;21.90;91.50;;;;;;5074486;28;20052;-71
2022/05/07 11:00:22;;;;;;;9.68;4.07;;;21.80;90.90;;;;;;5074258;28;20048;-73
2022/05/07 11:02:56;;;;;;;7.18;4.38;;;21.70;91.80;;;;;;5074482;28;20056;-73
2022/05/07 11:05:31;;;;;;;6.40;3.80;;;21.60;92.10;;;;;;5057595;28;20089;-73
2022/05/07 11:08:03;;;;;;;8.65;4.90;;;21.60;91.40;;;;;;5074363;28;20162;-73
2022/05/07 11:10:31;;;;;;;7.22;3.80;;;21.80;91.70;;;;;;5057032;28;20043;-72
2022/05/07 11:13:09;;;;;;;12.63;5.55;;;21.70;91.30;;;;;;5057613;28;20187;-71
2022/05/07 11:15:37;;;;;;;9.38;4.70;;;21.70;91.60;;;;;;5040398;28;20062;-73
2022/05/07 11:18:15;;;;;;;7.25;4.78;;;21.50;91.80;;;;;;5072975;28;20054;-71
2022/05/07 11:20:45;;;;;;;9.48;4.68;;;21.60;91.80;;;;;;5073618;28;20068;-71
2022/05/07 11:23:13;;;;;;;9.80;4.75;;;21.60;91.90;;;;;;5072898;28;20052;-73
2022/05/07 11:25:45;;;;;;;9.32;4.15;;;21.60;92.10;;;;;;5073839;28;20097;-72
2022/05/07 11:28:13;;;;;;;6.47;4.00;;;21.60;92.10;;;;;;5073895;28;20208;-72
2022/05/07 11:30:53;;;;;;;5.40;3.65;;;21.60;91.30;;;;;;5057338;28;20633;-71
2022/05/07 11:33:24;;;;;;;12.55;4.68;;;21.70;90.70;;;;;;5073367;28;20040;-72
2022/05/07 11:36:06;;;;;;;8.30;4.65;;;21.70;90.60;;;;;;5073541;28;20051;-73
2022/05/07 11:38:37;;;;;;;6.57;4.35;;;21.70;91.30;;;;;;5057170;28;20097;-73
2022/05/07 11:41:14;;;;;;;9.40;4.10;;;21.70;91.00;;;;;;5074195;28;20109;-72
2022/05/07 11:46:52;;;;;;;7.65;3.63;;;21.70;91.30;;;;;;5073379;28;20462;-73
2022/05/07 11:49:35;;;;;;;6.22;4.25;;;21.60;91.10;;;;;;5058775;28;20051;-72
2022/05/07 11:52:12;;;;;;;33.47;21.65;;;21.60;90.00;;;;;;5073772;28;20052;-73
2022/05/07 11:54:50;;;;;;;30.15;18.95;;;21.70;90.10;;;;;;5091691;28;20047;-72
2022/05/07 11:57:35;;;;;;;7.63;4.20;;;21.50;90.10;;;;;;5073783;28;20048;-73
2022/05/07 12:00:27;;;;;;;9.20;4.68;;;21.40;89.60;;;;;;5040776;28;20461;-72
2022/05/07 12:03:03;;;;;;;11.50;4.50;;;21.30;91.30;;;;;;5057121;28;20074;-74
2022/05/07 12:05:44;;;;;;;6.47;4.20;;;21.20;90.90;;;;;;5073875;28;20042;-72
2022/05/07 12:08:30;;;;;;;8.15;3.65;;;21.10;90.30;;;;;;5056923;28;20425;-72
2022/05/07 12:10:59;;;;;;;7.80;3.70;;;21.10;90.20;;;;;;5073659;28;20044;-72
2022/05/07 12:13:28;;;;;;;7.75;3.70;;;21.10;90.40;;;;;;5039994;28;20070;-73
2022/05/07 12:18:48;;;;;;;6.07;3.22;;;21.30;89.80;;;;;;5073328;28;20075;-72
2022/05/07 12:21:16;;;;;;;7.07;3.78;;;21.40;90.60;;;;;;5090780;28;20036;-73
2022/05/07 12:31:52;;;;;;;8.73;3.30;;;21.30;91.10;;;;;;5091390;28;20044;-73
2022/05/07 12:34:21;;;;;;;9.63;4.72;;;21.30;90.80;;;;;;5072897;28;20044;-72
2022/05/07 12:36:49;;;;;;;7.45;3.47;;;21.30;90.50;;;;;;5068441;28;20070;-72
2022/05/07 12:39:18;;;;;;;9.70;3.85;;;21.20;89.60;;;;;;5040112;28;20052;-72
2022/05/07 12:41:46;;;;;;;7.32;3.65;;;21.10;90.50;;;;;;5053717;28;20509;-73
2022/05/07 12:44:14;;;;;;;6.97;4.13;;;21.00;90.60;;;;;;5081685;28;20122;-72
2022/05/07 12:46:45;;;;;;;8.05;4.03;;;21.10;91.10;;;;;;5070321;28;20048;-70
2022/05/07 12:49:13;;;;;;;7.90;4.43;;;21.10;91.20;;;;;;5079405;28;20510;-70
2022/05/07 12:51:41;;;;;;;10.82;3.28;;;21.20;91.90;;;;;;5036963;28;20489;-70
2022/05/07 12:54:08;;;;;;;7.28;3.85;;;21.40;90.70;;;;;;5056270;28;20098;-70
2022/05/07 12:56:38;;;;;;;8.30;3.92;;;21.40;90.10;;;;;;5087798;28;20044;-73
2022/05/07 12:59:06;;;;;;;7.10;4.32;;;21.50;88.60;;;;;;5041043;28;20057;-72
2022/05/07 13:01:34;;;;;;;6.38;3.60;;;21.30;90.10;;;;;;5070611;28;20052;-73
2022/05/07 13:04:02;;;;;;;10.13;4.45;;;21.40;90.00;;;;;;5052539;28;20053;-73
2022/05/07 13:06:30;;;;;;;8.40;4.65;;;21.50;90.10;;;;;;5054143;28;20047;-72
2022/05/07 13:09:00;;;;;;;8.10;3.50;;;21.50;89.80;;;;;;5052672;28;20109;-71
2022/05/07 13:11:33;;;;;;;6.90;3.63;;;21.60;88.90;;;;;;5037448;28;20044;-71
2022/05/07 13:14:01;;;;;;;5.18;3.05;;;21.50;88.90;;;;;;5055800;28;20044;-72
2022/05/07 13:16:31;;;;;;;9.25;3.83;;;21.50;89.10;;;;;;5054069;28;20068;-72
2022/05/07 13:18:59;;;;;;;5.82;3.22;;;21.50;90.30;;;;;;5067959;28;20048;-72
2022/05/07 13:21:27;;;;;;;6.85;3.70;;;21.60;90.30;;;;;;5054030;28;20043;-73
2022/05/07 13:23:58;;;;;;;6.18;3.53;;;21.60;90.40;;;;;;5052102;28;20139;-72
2022/05/07 13:26:26;;;;;;;5.30;3.10;;;21.70;90.20;;;;;;5053690;28;20519;-72
2022/05/07 13:29:11;;;;;;;8.07;4.07;;;21.70;89.70;;;;;;5077902;28;20045;-73
2022/05/07 13:31:40;;;;;;;5.82;3.10;;;21.70;89.60;;;;;;5038559;28;20513;-73
2022/05/07 13:34:08;;;;;;;6.80;3.33;;;21.60;88.40;;;;;;5056650;28;20062;-72
2022/05/07 13:36:38;;;;;;;7.18;3.30;;;21.60;90.10;;;;;;5077538;28;20044;-71
2022/05/07 13:39:05;;;;;;;6.50;3.70;;;21.60;90.30;;;;;;5060169;28;20398;-73
2022/05/07 13:41:33;;;;;;;9.32;3.80;;;21.60;90.60;;;;;;5092119;28;20063;-73
2022/05/07 13:44:01;;;;;;;9.52;3.58;;;21.60;91.10;;;;;;5052393;28;20048;-76